sensor_id;sensor_type;location;lat;lon;timestamp;P1;durP1;ratioP1;P2;durP2;ratioP2
29916;SDS011;16786;49.466;11.068;2024-02-26T00:01:50;8.82;;;6.55;;
29916;SDS011;16786;49.466;11.068;2024-02-26T00:04:18;9.90;;;6.43;;
29916;SDS011;16786;49.466;11.068;2024-02-26T00:06:45;9.98;;;6.60;;
29916;SDS011;16786;49.466;11.068;2024-02-26T00:09:13;10.32;;;6.57;;
29916;SDS011;16786;49.466;11.068;2024-02-26T00:11:40;11.88;;;7.10;;
29916;SDS011;16786;49.466;11.068;2024-02-26T00:14:07;11.57;;;7.00;;
29916;SDS011;16786;49.466;11.068;2024-02-26T00:16:34;10.35;;;7.55;;
29916;SDS011;16786;49.466;11.068;2024-02-26T00:19:00;9.23;;;6.13;;
29916;SDS011;16786;49.466;11.068;2024-02-26T00:21:28;10.52;;;7.30;;
29916;SDS011;16786;49.466;11.068;2024-02-26T00:23:54;9.27;;;6.38;;
29916;SDS011;16786;49.466;11.068;2024-02-26T00:26:21;9.73;;;6.53;;
29916;SDS011;16786;49.466;11.068;2024-02-26T00:28:48;12.90;;;6.85;;
29916;SDS011;16786;49.466;11.068;2024-02-26T00:31:15;12.18;;;7.20;;
29916;SDS011;16786;49.466;11.068;2024-02-26T00:33:42;12.88;;;7.18;;
29916;SDS011;16786;49.466;11.068;2024-02-26T00:36:10;13.20;;;7.68;;
29916;SDS011;16786;49.466;11.068;2024-02-26T00:38:37;9.73;;;7.05;;
29916;SDS011;16786;49.466;11.068;2024-02-26T00:41:04;11.68;;;7.60;;
29916;SDS011;16786;49.466;11.068;2024-02-26T00:43:30;11.30;;;7.43;;
29916;SDS011;16786;49.466;11.068;2024-02-26T00:45:57;14.25;;;8.65;;
29916;SDS011;16786;49.466;11.068;2024-02-26T00:48:24;13.88;;;7.50;;
29916;SDS011;16786;49.466;11.068;2024-02-26T00:50:52;13.65;;;8.18;;
29916;SDS011;16786;49.466;11.068;2024-02-26T00:53:19;14.57;;;8.43;;
29916;SDS011;16786;49.466;11.068;2024-02-26T00:55:46;15.30;;;8.77;;
29916;SDS011;16786;49.466;11.068;2024-02-26T00:58:13;12.80;;;7.82;;
29916;SDS011;16786;49.466;11.068;2024-02-26T01:00:40;15.88;;;9.43;;
29916;SDS011;16786;49.466;11.068;2024-02-26T01:03:07;13.32;;;9.00;;
29916;SDS011;16786;49.466;11.068;2024-02-26T01:05:34;15.18;;;9.18;;
29916;SDS011;16786;49.466;11.068;2024-02-26T01:08:01;17.10;;;8.43;;
29916;SDS011;16786;49.466;11.068;2024-02-26T01:10:29;15.93;;;9.38;;
29916;SDS011;16786;49.466;11.068;2024-02-26T01:12:56;17.45;;;9.05;;
29916;SDS011;16786;49.466;11.068;2024-02-26T01:15:23;15.23;;;8.63;;
29916;SDS011;16786;49.466;11.068;2024-02-26T01:17:50;16.73;;;9.10;;
29916;SDS011;16786;49.466;11.068;2024-02-26T01:20:17;16.50;;;8.95;;
29916;SDS011;16786;49.466;11.068;2024-02-26T01:22:44;16.42;;;9.18;;
29916;SDS011;16786;49.466;11.068;2024-02-26T01:25:12;15.80;;;9.68;;
29916;SDS011;16786;49.466;11.068;2024-02-26T01:27:39;14.75;;;8.63;;
29916;SDS011;16786;49.466;11.068;2024-02-26T01:30:07;17.05;;;9.70;;
29916;SDS011;16786;49.466;11.068;2024-02-26T01:32:35;15.25;;;8.65;;
29916;SDS011;16786;49.466;11.068;2024-02-26T01:35:02;17.75;;;9.57;;
29916;SDS011;16786;49.466;11.068;2024-02-26T01:37:30;16.00;;;9.13;;
29916;SDS011;16786;49.466;11.068;2024-02-26T01:39:57;15.70;;;9.57;;
29916;SDS011;16786;49.466;11.068;2024-02-26T01:42:23;16.98;;;10.00;;
29916;SDS011;16786;49.466;11.068;2024-02-26T01:44:50;16.10;;;9.73;;
29916;SDS011;16786;49.466;11.068;2024-02-26T01:47:17;17.75;;;9.85;;
29916;SDS011;16786;49.466;11.068;2024-02-26T01:49:45;17.65;;;9.65;;
29916;SDS011;16786;49.466;11.068;2024-02-26T01:52:12;18.20;;;9.45;;
29916;SDS011;16786;49.466;11.068;2024-02-26T01:54:39;16.60;;;8.95;;
29916;SDS011;16786;49.466;11.068;2024-02-26T01:57:07;17.98;;;9.65;;
29916;SDS011;16786;49.466;11.068;2024-02-26T01:59:35;16.67;;;9.40;;
29916;SDS011;16786;49.466;11.068;2024-02-26T02:02:03;13.43;;;8.35;;
29916;SDS011;16786;49.466;11.068;2024-02-26T02:04:33;17.63;;;10.27;;
29916;SDS011;16786;49.466;11.068;2024-02-26T02:07:01;17.83;;;9.93;;
29916;SDS011;16786;49.466;11.068;2024-02-26T02:09:29;15.15;;;9.05;;
29916;SDS011;16786;49.466;11.068;2024-02-26T02:11:57;18.80;;;9.48;;
29916;SDS011;16786;49.466;11.068;2024-02-26T02:14:25;16.83;;;9.80;;
29916;SDS011;16786;49.466;11.068;2024-02-26T02:16:52;16.20;;;9.60;;
29916;SDS011;16786;49.466;11.068;2024-02-26T02:19:19;16.85;;;9.27;;
29916;SDS011;16786;49.466;11.068;2024-02-26T02:21:46;17.65;;;9.75;;
29916;SDS011;16786;49.466;11.068;2024-02-26T02:24:13;16.52;;;9.45;;
29916;SDS011;16786;49.466;11.068;2024-02-26T02:26:40;18.63;;;9.73;;
29916;SDS011;16786;49.466;11.068;2024-02-26T02:29:07;13.90;;;8.30;;
29916;SDS011;16786;49.466;11.068;2024-02-26T02:31:36;17.90;;;9.05;;
29916;SDS011;16786;49.466;11.068;2024-02-26T02:34:03;14.48;;;8.60;;
29916;SDS011;16786;49.466;11.068;2024-02-26T02:36:30;15.43;;;9.27;;
29916;SDS011;16786;49.466;11.068;2024-02-26T02:38:57;15.57;;;8.48;;
29916;SDS011;16786;49.466;11.068;2024-02-26T02:41:24;14.63;;;8.73;;
29916;SDS011;16786;49.466;11.068;2024-02-26T02:43:52;15.32;;;8.38;;
29916;SDS011;16786;49.466;11.068;2024-02-26T02:46:19;12.85;;;7.90;;
29916;SDS011;16786;49.466;11.068;2024-02-26T02:48:46;13.57;;;8.43;;
29916;SDS011;16786;49.466;11.068;2024-02-26T02:51:13;16.50;;;8.75;;
29916;SDS011;16786;49.466;11.068;2024-02-26T02:53:40;15.95;;;8.23;;
29916;SDS011;16786;49.466;11.068;2024-02-26T02:56:07;16.45;;;9.48;;
29916;SDS011;16786;49.466;11.068;2024-02-26T02:58:34;15.30;;;9.40;;
29916;SDS011;16786;49.466;11.068;2024-02-26T03:01:01;15.30;;;8.88;;
29916;SDS011;16786;49.466;11.068;2024-02-26T03:03:29;19.90;;;10.18;;
29916;SDS011;16786;49.466;11.068;2024-02-26T03:05:56;14.20;;;8.77;;
29916;SDS011;16786;49.466;11.068;2024-02-26T03:08:23;14.52;;;8.70;;
29916;SDS011;16786;49.466;11.068;2024-02-26T03:10:52;14.40;;;8.18;;
29916;SDS011;16786;49.466;11.068;2024-02-26T03:13:19;14.65;;;8.43;;
29916;SDS011;16786;49.466;11.068;2024-02-26T03:15:46;15.65;;;8.77;;
29916;SDS011;16786;49.466;11.068;2024-02-26T03:18:13;16.40;;;9.32;;
29916;SDS011;16786;49.466;11.068;2024-02-26T03:20:40;16.02;;;9.13;;
29916;SDS011;16786;49.466;11.068;2024-02-26T03:23:07;12.98;;;7.82;;
29916;SDS011;16786;49.466;11.068;2024-02-26T03:25:38;17.85;;;8.63;;
29916;SDS011;16786;49.466;11.068;2024-02-26T03:28:05;15.27;;;8.52;;
29916;SDS011;16786;49.466;11.068;2024-02-26T03:30:33;17.38;;;9.18;;
29916;SDS011;16786;49.466;11.068;2024-02-26T03:33:01;15.13;;;8.45;;
29916;SDS011;16786;49.466;11.068;2024-02-26T03:39:22;14.73;;;8.27;;
29916;SDS011;16786;49.466;11.068;2024-02-26T03:41:49;16.75;;;8.85;;
29916;SDS011;16786;49.466;11.068;2024-02-26T03:44:16;14.77;;;8.32;;
29916;SDS011;16786;49.466;11.068;2024-02-26T03:46:43;15.52;;;9.13;;
29916;SDS011;16786;49.466;11.068;2024-02-26T03:49:10;15.00;;;8.65;;
29916;SDS011;16786;49.466;11.068;2024-02-26T03:51:37;17.40;;;8.43;;
29916;SDS011;16786;49.466;11.068;2024-02-26T03:54:04;15.82;;;8.93;;
29916;SDS011;16786;49.466;11.068;2024-02-26T03:56:31;15.52;;;8.85;;
29916;SDS011;16786;49.466;11.068;2024-02-26T03:58:58;16.67;;;8.48;;
29916;SDS011;16786;49.466;11.068;2024-02-26T04:01:26;16.85;;;8.68;;
29916;SDS011;16786;49.466;11.068;2024-02-26T04:03:53;17.05;;;8.90;;
29916;SDS011;16786;49.466;11.068;2024-02-26T04:06:20;14.45;;;8.10;;
29916;SDS011;16786;49.466;11.068;2024-02-26T04:08:49;14.80;;;8.27;;
29916;SDS011;16786;49.466;11.068;2024-02-26T04:11:16;14.88;;;8.40;;
29916;SDS011;16786;49.466;11.068;2024-02-26T04:13:44;12.20;;;7.57;;
29916;SDS011;16786;49.466;11.068;2024-02-26T04:16:17;12.18;;;7.30;;
29916;SDS011;16786;49.466;11.068;2024-02-26T04:18:44;14.07;;;7.50;;
29916;SDS011;16786;49.466;11.068;2024-02-26T04:21:11;13.38;;;7.82;;
29916;SDS011;16786;49.466;11.068;2024-02-26T04:23:38;13.18;;;7.10;;
29916;SDS011;16786;49.466;11.068;2024-02-26T04:26:05;15.18;;;7.55;;
29916;SDS011;16786;49.466;11.068;2024-02-26T04:28:32;14.20;;;8.80;;
29916;SDS011;16786;49.466;11.068;2024-02-26T04:30:59;16.10;;;8.40;;
29916;SDS011;16786;49.466;11.068;2024-02-26T04:33:26;13.85;;;8.05;;
29916;SDS011;16786;49.466;11.068;2024-02-26T04:35:53;13.18;;;7.28;;
29916;SDS011;16786;49.466;11.068;2024-02-26T04:38:20;13.50;;;8.18;;
29916;SDS011;16786;49.466;11.068;2024-02-26T04:40:47;15.35;;;7.75;;
29916;SDS011;16786;49.466;11.068;2024-02-26T04:43:13;13.35;;;8.25;;
29916;SDS011;16786;49.466;11.068;2024-02-26T04:45:40;13.10;;;7.72;;
29916;SDS011;16786;49.466;11.068;2024-02-26T04:48:07;14.02;;;6.93;;
29916;SDS011;16786;49.466;11.068;2024-02-26T04:50:35;14.25;;;7.50;;
29916;SDS011;16786;49.466;11.068;2024-02-26T04:53:02;16.38;;;8.90;;
29916;SDS011;16786;49.466;11.068;2024-02-26T04:55:28;13.75;;;8.13;;
29916;SDS011;16786;49.466;11.068;2024-02-26T04:57:55;17.63;;;7.65;;
29916;SDS011;16786;49.466;11.068;2024-02-26T05:00:22;13.13;;;8.40;;
29916;SDS011;16786;49.466;11.068;2024-02-26T05:02:49;12.98;;;7.88;;
29916;SDS011;16786;49.466;11.068;2024-02-26T05:05:16;13.95;;;7.93;;
29916;SDS011;16786;49.466;11.068;2024-02-26T05:07:44;13.90;;;7.97;;
29916;SDS011;16786;49.466;11.068;2024-02-26T05:10:11;12.48;;;7.80;;
29916;SDS011;16786;49.466;11.068;2024-02-26T05:12:38;11.05;;;6.75;;
29916;SDS011;16786;49.466;11.068;2024-02-26T05:15:07;10.52;;;6.65;;
29916;SDS011;16786;49.466;11.068;2024-02-26T05:17:34;10.35;;;6.22;;
29916;SDS011;16786;49.466;11.068;2024-02-26T05:20:01;11.70;;;6.57;;
29916;SDS011;16786;49.466;11.068;2024-02-26T05:22:28;9.23;;;5.82;;
29916;SDS011;16786;49.466;11.068;2024-02-26T05:24:55;10.88;;;7.03;;
29916;SDS011;16786;49.466;11.068;2024-02-26T05:27:22;10.95;;;6.65;;
29916;SDS011;16786;49.466;11.068;2024-02-26T05:29:50;12.40;;;6.10;;
29916;SDS011;16786;49.466;11.068;2024-02-26T05:32:18;10.98;;;6.47;;
29916;SDS011;16786;49.466;11.068;2024-02-26T05:34:45;10.55;;;6.22;;
29916;SDS011;16786;49.466;11.068;2024-02-26T05:37:12;11.38;;;6.28;;
29916;SDS011;16786;49.466;11.068;2024-02-26T05:39:39;11.50;;;6.88;;
29916;SDS011;16786;49.466;11.068;2024-02-26T05:42:06;11.68;;;7.63;;
29916;SDS011;16786;49.466;11.068;2024-02-26T05:44:35;11.60;;;6.90;;
29916;SDS011;16786;49.466;11.068;2024-02-26T05:47:02;12.45;;;6.18;;
29916;SDS011;16786;49.466;11.068;2024-02-26T05:49:32;11.10;;;6.57;;
29916;SDS011;16786;49.466;11.068;2024-02-26T05:52:00;8.73;;;5.85;;
29916;SDS011;16786;49.466;11.068;2024-02-26T05:54:26;11.55;;;5.93;;
29916;SDS011;16786;49.466;11.068;2024-02-26T05:56:54;9.93;;;6.60;;
29916;SDS011;16786;49.466;11.068;2024-02-26T05:59:21;10.40;;;6.03;;
29916;SDS011;16786;49.466;11.068;2024-02-26T06:01:48;9.60;;;6.60;;
29916;SDS011;16786;49.466;11.068;2024-02-26T06:04:15;10.02;;;5.90;;
29916;SDS011;16786;49.466;11.068;2024-02-26T06:06:44;10.85;;;6.40;;
29916;SDS011;16786;49.466;11.068;2024-02-26T06:09:12;12.35;;;6.80;;
29916;SDS011;16786;49.466;11.068;2024-02-26T06:11:39;12.43;;;7.57;;
29916;SDS011;16786;49.466;11.068;2024-02-26T06:14:06;18.05;;;10.00;;
29916;SDS011;16786;49.466;11.068;2024-02-26T06:16:33;13.82;;;7.88;;
29916;SDS011;16786;49.466;11.068;2024-02-26T06:19:00;9.27;;;5.82;;
29916;SDS011;16786;49.466;11.068;2024-02-26T06:21:27;10.98;;;6.65;;
29916;SDS011;16786;49.466;11.068;2024-02-26T06:23:54;9.43;;;5.80;;
29916;SDS011;16786;49.466;11.068;2024-02-26T06:26:21;9.70;;;6.15;;
29916;SDS011;16786;49.466;11.068;2024-02-26T06:28:48;11.23;;;6.20;;
29916;SDS011;16786;49.466;11.068;2024-02-26T06:31:15;11.45;;;6.50;;
29916;SDS011;16786;49.466;11.068;2024-02-26T06:33:42;11.20;;;5.93;;
29916;SDS011;16786;49.466;11.068;2024-02-26T06:36:09;11.82;;;6.05;;
29916;SDS011;16786;49.466;11.068;2024-02-26T06:38:36;9.15;;;6.15;;
29916;SDS011;16786;49.466;11.068;2024-02-26T06:41:03;9.93;;;6.40;;
29916;SDS011;16786;49.466;11.068;2024-02-26T06:43:30;11.30;;;6.32;;
29916;SDS011;16786;49.466;11.068;2024-02-26T06:45:57;9.50;;;6.13;;
29916;SDS011;16786;49.466;11.068;2024-02-26T06:48:24;12.35;;;6.80;;
29916;SDS011;16786;49.466;11.068;2024-02-26T06:50:51;11.32;;;6.15;;
29916;SDS011;16786;49.466;11.068;2024-02-26T06:53:18;10.95;;;6.35;;
29916;SDS011;16786;49.466;11.068;2024-02-26T06:55:45;10.40;;;5.75;;
29916;SDS011;16786;49.466;11.068;2024-02-26T06:58:12;8.90;;;5.57;;
29916;SDS011;16786;49.466;11.068;2024-02-26T07:00:40;12.35;;;6.53;;
29916;SDS011;16786;49.466;11.068;2024-02-26T07:03:07;10.10;;;6.30;;
29916;SDS011;16786;49.466;11.068;2024-02-26T07:05:34;13.77;;;6.28;;
29916;SDS011;16786;49.466;11.068;2024-02-26T07:08:01;11.98;;;5.93;;
29916;SDS011;16786;49.466;11.068;2024-02-26T07:10:28;10.93;;;6.28;;
29916;SDS011;16786;49.466;11.068;2024-02-26T07:12:55;9.88;;;6.32;;
29916;SDS011;16786;49.466;11.068;2024-02-26T07:15:22;10.48;;;6.47;;
29916;SDS011;16786;49.466;11.068;2024-02-26T07:17:49;13.60;;;6.90;;
29916;SDS011;16786;49.466;11.068;2024-02-26T07:20:16;11.25;;;6.50;;
29916;SDS011;16786;49.466;11.068;2024-02-26T07:22:44;12.98;;;7.85;;
29916;SDS011;16786;49.466;11.068;2024-02-26T07:25:11;11.60;;;8.10;;
29916;SDS011;16786;49.466;11.068;2024-02-26T07:27:40;14.00;;;7.00;;
29916;SDS011;16786;49.466;11.068;2024-02-26T07:30:07;10.05;;;6.75;;
29916;SDS011;16786;49.466;11.068;2024-02-26T07:32:35;12.68;;;6.00;;
29916;SDS011;16786;49.466;11.068;2024-02-26T07:35:02;11.05;;;6.32;;
29916;SDS011;16786;49.466;11.068;2024-02-26T07:37:30;10.63;;;7.25;;
29916;SDS011;16786;49.466;11.068;2024-02-26T07:39:57;12.00;;;7.15;;
29916;SDS011;16786;49.466;11.068;2024-02-26T07:42:23;9.68;;;7.07;;
29916;SDS011;16786;49.466;11.068;2024-02-26T07:44:51;13.65;;;7.00;;
29916;SDS011;16786;49.466;11.068;2024-02-26T07:47:19;10.02;;;6.65;;
29916;SDS011;16786;49.466;11.068;2024-02-26T07:49:46;9.00;;;6.60;;
29916;SDS011;16786;49.466;11.068;2024-02-26T07:52:13;9.38;;;6.30;;
29916;SDS011;16786;49.466;11.068;2024-02-26T07:54:40;11.10;;;7.20;;
29916;SDS011;16786;49.466;11.068;2024-02-26T07:57:07;12.57;;;7.50;;
29916;SDS011;16786;49.466;11.068;2024-02-26T07:59:34;12.45;;;7.45;;
29916;SDS011;16786;49.466;11.068;2024-02-26T08:02:01;10.75;;;7.13;;
29916;SDS011;16786;49.466;11.068;2024-02-26T08:04:29;11.25;;;7.45;;
29916;SDS011;16786;49.466;11.068;2024-02-26T08:06:56;9.93;;;6.70;;
29916;SDS011;16786;49.466;11.068;2024-02-26T08:09:24;10.98;;;7.38;;
29916;SDS011;16786;49.466;11.068;2024-02-26T08:11:51;6.85;;;5.80;;
29916;SDS011;16786;49.466;11.068;2024-02-26T08:14:18;9.50;;;6.60;;
29916;SDS011;16786;49.466;11.068;2024-02-26T08:16:45;8.63;;;6.28;;
29916;SDS011;16786;49.466;11.068;2024-02-26T08:19:11;9.32;;;5.93;;
29916;SDS011;16786;49.466;11.068;2024-02-26T08:21:41;9.18;;;6.40;;
29916;SDS011;16786;49.466;11.068;2024-02-26T08:24:08;9.00;;;6.70;;
29916;SDS011;16786;49.466;11.068;2024-02-26T08:26:35;11.20;;;6.68;;
29916;SDS011;16786;49.466;11.068;2024-02-26T08:29:02;13.55;;;7.40;;
29916;SDS011;16786;49.466;11.068;2024-02-26T08:31:29;10.18;;;6.80;;
29916;SDS011;16786;49.466;11.068;2024-02-26T08:33:57;9.23;;;6.30;;
29916;SDS011;16786;49.466;11.068;2024-02-26T08:36:26;12.25;;;7.03;;
29916;SDS011;16786;49.466;11.068;2024-02-26T08:38:52;9.35;;;6.20;;
29916;SDS011;16786;49.466;11.068;2024-02-26T08:41:19;10.00;;;6.25;;
29916;SDS011;16786;49.466;11.068;2024-02-26T08:43:46;10.60;;;6.80;;
29916;SDS011;16786;49.466;11.068;2024-02-26T08:46:13;9.60;;;6.80;;
29916;SDS011;16786;49.466;11.068;2024-02-26T08:48:40;9.68;;;6.55;;
29916;SDS011;16786;49.466;11.068;2024-02-26T08:51:08;9.77;;;6.88;;
29916;SDS011;16786;49.466;11.068;2024-02-26T08:53:35;10.68;;;6.85;;
29916;SDS011;16786;49.466;11.068;2024-02-26T08:56:09;10.52;;;7.80;;
29916;SDS011;16786;49.466;11.068;2024-02-26T08:58:45;8.65;;;6.72;;
29916;SDS011;16786;49.466;11.068;2024-02-26T09:01:15;14.60;;;7.40;;
29916;SDS011;16786;49.466;11.068;2024-02-26T09:03:42;11.95;;;7.45;;
29916;SDS011;16786;49.466;11.068;2024-02-26T09:06:09;11.35;;;7.80;;
29916;SDS011;16786;49.466;11.068;2024-02-26T09:08:38;11.43;;;7.63;;
29916;SDS011;16786;49.466;11.068;2024-02-26T09:11:05;12.43;;;7.25;;
29916;SDS011;16786;49.466;11.068;2024-02-26T09:13:32;10.27;;;7.45;;
29916;SDS011;16786;49.466;11.068;2024-02-26T09:15:58;9.25;;;7.32;;
29916;SDS011;16786;49.466;11.068;2024-02-26T09:18:26;10.43;;;6.97;;
29916;SDS011;16786;49.466;11.068;2024-02-26T09:20:55;13.85;;;7.13;;
29916;SDS011;16786;49.466;11.068;2024-02-26T09:23:22;10.50;;;7.43;;
29916;SDS011;16786;49.466;11.068;2024-02-26T09:25:49;12.30;;;6.97;;
29916;SDS011;16786;49.466;11.068;2024-02-26T09:28:16;13.15;;;7.65;;
29916;SDS011;16786;49.466;11.068;2024-02-26T09:30:44;13.65;;;8.30;;
29916;SDS011;16786;49.466;11.068;2024-02-26T09:33:11;9.75;;;6.47;;
29916;SDS011;16786;49.466;11.068;2024-02-26T09:35:40;9.13;;;7.10;;
29916;SDS011;16786;49.466;11.068;2024-02-26T09:38:08;10.25;;;6.72;;
29916;SDS011;16786;49.466;11.068;2024-02-26T09:40:35;8.55;;;6.60;;
29916;SDS011;16786;49.466;11.068;2024-02-26T09:43:04;9.43;;;7.47;;
29916;SDS011;16786;49.466;11.068;2024-02-26T09:45:32;8.50;;;7.35;;
29916;SDS011;16786;49.466;11.068;2024-02-26T09:48:01;10.07;;;7.57;;
29916;SDS011;16786;49.466;11.068;2024-02-26T09:50:31;9.88;;;7.13;;
29916;SDS011;16786;49.466;11.068;2024-02-26T09:52:58;8.68;;;6.38;;
29916;SDS011;16786;49.466;11.068;2024-02-26T09:55:28;8.68;;;6.57;;
29916;SDS011;16786;49.466;11.068;2024-02-26T09:57:56;9.27;;;6.88;;
29916;SDS011;16786;49.466;11.068;2024-02-26T10:00:24;8.82;;;6.47;;
29916;SDS011;16786;49.466;11.068;2024-02-26T10:02:56;7.55;;;5.78;;
29916;SDS011;16786;49.466;11.068;2024-02-26T10:05:25;8.27;;;6.53;;
29916;SDS011;16786;49.466;11.068;2024-02-26T10:07:53;8.45;;;7.03;;
29916;SDS011;16786;49.466;11.068;2024-02-26T10:10:22;8.48;;;7.45;;
29916;SDS011;16786;49.466;11.068;2024-02-26T10:12:49;9.13;;;7.57;;
29916;SDS011;16786;49.466;11.068;2024-02-26T10:15:16;10.70;;;7.72;;
29916;SDS011;16786;49.466;11.068;2024-02-26T10:17:43;9.05;;;6.65;;
29916;SDS011;16786;49.466;11.068;2024-02-26T10:20:13;8.35;;;6.15;;
29916;SDS011;16786;49.466;11.068;2024-02-26T10:22:43;8.15;;;6.30;;
29916;SDS011;16786;49.466;11.068;2024-02-26T10:25:11;8.55;;;6.65;;
29916;SDS011;16786;49.466;11.068;2024-02-26T10:27:38;8.35;;;6.68;;
29916;SDS011;16786;49.466;11.068;2024-02-26T10:30:17;8.75;;;6.20;;
29916;SDS011;16786;49.466;11.068;2024-02-26T10:32:45;10.00;;;6.45;;
29916;SDS011;16786;49.466;11.068;2024-02-26T10:35:14;10.65;;;6.93;;
29916;SDS011;16786;49.466;11.068;2024-02-26T10:37:45;9.90;;;6.93;;
29916;SDS011;16786;49.466;11.068;2024-02-26T10:40:13;10.90;;;6.97;;
29916;SDS011;16786;49.466;11.068;2024-02-26T10:42:41;9.50;;;7.20;;
29916;SDS011;16786;49.466;11.068;2024-02-26T10:45:09;12.15;;;6.47;;
29916;SDS011;16786;49.466;11.068;2024-02-26T10:47:36;8.68;;;6.90;;
29916;SDS011;16786;49.466;11.068;2024-02-26T10:50:05;9.45;;;6.75;;
29916;SDS011;16786;49.466;11.068;2024-02-26T10:52:33;9.13;;;6.90;;
29916;SDS011;16786;49.466;11.068;2024-02-26T10:55:03;7.10;;;6.38;;
29916;SDS011;16786;49.466;11.068;2024-02-26T10:57:38;9.32;;;6.60;;
29916;SDS011;16786;49.466;11.068;2024-02-26T11:00:07;8.60;;;6.82;;
29916;SDS011;16786;49.466;11.068;2024-02-26T11:02:40;8.43;;;6.63;;
29916;SDS011;16786;49.466;11.068;2024-02-26T11:05:07;7.07;;;6.30;;
29916;SDS011;16786;49.466;11.068;2024-02-26T11:07:34;8.25;;;6.53;;
29916;SDS011;16786;49.466;11.068;2024-02-26T11:10:05;8.48;;;6.10;;
29916;SDS011;16786;49.466;11.068;2024-02-26T11:12:32;10.77;;;6.82;;
29916;SDS011;16786;49.466;11.068;2024-02-26T11:15:04;8.30;;;6.50;;
29916;SDS011;16786;49.466;11.068;2024-02-26T11:17:32;7.93;;;6.15;;
29916;SDS011;16786;49.466;11.068;2024-02-26T11:20:01;7.38;;;6.10;;
29916;SDS011;16786;49.466;11.068;2024-02-26T11:22:32;8.80;;;6.50;;
29916;SDS011;16786;49.466;11.068;2024-02-26T11:24:59;10.48;;;7.15;;
29916;SDS011;16786;49.466;11.068;2024-02-26T11:27:29;13.98;;;8.48;;
29916;SDS011;16786;49.466;11.068;2024-02-26T11:29:59;8.50;;;7.40;;
29916;SDS011;16786;49.466;11.068;2024-02-26T11:32:27;8.93;;;6.32;;
29916;SDS011;16786;49.466;11.068;2024-02-26T11:34:57;7.30;;;6.40;;
29916;SDS011;16786;49.466;11.068;2024-02-26T11:37:25;8.30;;;6.63;;
29916;SDS011;16786;49.466;11.068;2024-02-26T11:39:52;9.82;;;6.60;;
29916;SDS011;16786;49.466;11.068;2024-02-26T11:42:22;8.45;;;6.43;;
29916;SDS011;16786;49.466;11.068;2024-02-26T11:47:18;7.72;;;6.93;;
29916;SDS011;16786;49.466;11.068;2024-02-26T11:49:47;7.72;;;6.70;;
29916;SDS011;16786;49.466;11.068;2024-02-26T11:52:15;7.50;;;6.45;;
29916;SDS011;16786;49.466;11.068;2024-02-26T11:54:46;7.80;;;7.00;;
29916;SDS011;16786;49.466;11.068;2024-02-26T11:57:30;7.75;;;6.57;;
29916;SDS011;16786;49.466;11.068;2024-02-26T12:00:12;8.43;;;6.35;;
29916;SDS011;16786;49.466;11.068;2024-02-26T12:05:24;7.95;;;7.15;;
29916;SDS011;16786;49.466;11.068;2024-02-26T12:07:54;7.85;;;6.80;;
29916;SDS011;16786;49.466;11.068;2024-02-26T12:10:30;7.78;;;6.97;;
29916;SDS011;16786;49.466;11.068;2024-02-26T12:13:03;7.53;;;6.72;;
29916;SDS011;16786;49.466;11.068;2024-02-26T12:15:39;7.70;;;6.95;;
29916;SDS011;16786;49.466;11.068;2024-02-26T12:18:07;8.90;;;8.00;;
29916;SDS011;16786;49.466;11.068;2024-02-26T12:20:39;8.65;;;7.60;;
29916;SDS011;16786;49.466;11.068;2024-02-26T12:23:06;8.52;;;7.72;;
29916;SDS011;16786;49.466;11.068;2024-02-26T12:25:33;7.72;;;6.93;;
29916;SDS011;16786;49.466;11.068;2024-02-26T12:28:00;7.50;;;6.80;;
29916;SDS011;16786;49.466;11.068;2024-02-26T12:30:27;7.05;;;6.43;;
29916;SDS011;16786;49.466;11.068;2024-02-26T12:32:59;8.77;;;7.63;;
29916;SDS011;16786;49.466;11.068;2024-02-26T12:35:28;7.90;;;7.20;;
29916;SDS011;16786;49.466;11.068;2024-02-26T12:37:55;7.70;;;7.00;;
29916;SDS011;16786;49.466;11.068;2024-02-26T12:40:22;7.75;;;7.05;;
29916;SDS011;16786;49.466;11.068;2024-02-26T12:42:49;8.00;;;7.30;;
29916;SDS011;16786;49.466;11.068;2024-02-26T12:45:16;7.80;;;7.10;;
29916;SDS011;16786;49.466;11.068;2024-02-26T12:47:44;8.25;;;7.45;;
29916;SDS011;16786;49.466;11.068;2024-02-26T12:50:16;7.28;;;6.57;;
29916;SDS011;16786;49.466;11.068;2024-02-26T12:52:44;8.68;;;6.75;;
29916;SDS011;16786;49.466;11.068;2024-02-26T12:55:16;7.90;;;6.40;;
29916;SDS011;16786;49.466;11.068;2024-02-26T12:57:45;7.10;;;6.50;;
29916;SDS011;16786;49.466;11.068;2024-02-26T13:00:20;7.85;;;7.13;;
29916;SDS011;16786;49.466;11.068;2024-02-26T13:02:50;7.22;;;6.55;;
29916;SDS011;16786;49.466;11.068;2024-02-26T13:05:18;7.03;;;6.32;;
29916;SDS011;16786;49.466;11.068;2024-02-26T13:07:46;7.28;;;6.68;;
29916;SDS011;16786;49.466;11.068;2024-02-26T13:10:13;7.05;;;6.45;;
29916;SDS011;16786;49.466;11.068;2024-02-26T13:12:43;6.80;;;6.28;;
29916;SDS011;16786;49.466;11.068;2024-02-26T13:15:18;7.63;;;6.93;;
29916;SDS011;16786;49.466;11.068;2024-02-26T13:17:49;7.50;;;6.88;;
29916;SDS011;16786;49.466;11.068;2024-02-26T13:20:29;7.07;;;6.47;;
29916;SDS011;16786;49.466;11.068;2024-02-26T13:23:01;6.32;;;5.82;;
29916;SDS011;16786;49.466;11.068;2024-02-26T13:25:33;6.43;;;5.93;;
29916;SDS011;16786;49.466;11.068;2024-02-26T13:28:17;6.70;;;6.03;;
29916;SDS011;16786;49.466;11.068;2024-02-26T13:30:55;6.65;;;6.15;;
29916;SDS011;16786;49.466;11.068;2024-02-26T13:33:24;6.75;;;6.25;;
29916;SDS011;16786;49.466;11.068;2024-02-26T13:35:53;7.18;;;6.57;;
29916;SDS011;16786;49.466;11.068;2024-02-26T13:38:21;6.57;;;6.07;;
29916;SDS011;16786;49.466;11.068;2024-02-26T13:40:49;6.80;;;6.03;;
29916;SDS011;16786;49.466;11.068;2024-02-26T13:43:17;6.80;;;6.30;;
29916;SDS011;16786;49.466;11.068;2024-02-26T13:45:44;6.88;;;6.28;;
29916;SDS011;16786;49.466;11.068;2024-02-26T13:48:12;7.20;;;6.57;;
29916;SDS011;16786;49.466;11.068;2024-02-26T13:50:42;8.65;;;7.75;;
29916;SDS011;16786;49.466;11.068;2024-02-26T13:53:11;9.57;;;8.75;;
29916;SDS011;16786;49.466;11.068;2024-02-26T13:55:39;8.25;;;7.65;;
29916;SDS011;16786;49.466;11.068;2024-02-26T13:58:09;7.50;;;7.00;;
29916;SDS011;16786;49.466;11.068;2024-02-26T14:00:39;7.95;;;7.20;;
29916;SDS011;16786;49.466;11.068;2024-02-26T14:03:09;7.45;;;6.85;;
29916;SDS011;16786;49.466;11.068;2024-02-26T14:05:36;7.25;;;6.60;;
29916;SDS011;16786;49.466;11.068;2024-02-26T14:08:03;6.88;;;6.28;;
29916;SDS011;16786;49.466;11.068;2024-02-26T14:10:30;7.20;;;6.60;;
29916;SDS011;16786;49.466;11.068;2024-02-26T14:12:58;7.53;;;6.90;;
29916;SDS011;16786;49.466;11.068;2024-02-26T14:15:26;7.28;;;6.57;;
29916;SDS011;16786;49.466;11.068;2024-02-26T14:17:55;6.72;;;6.22;;
29916;SDS011;16786;49.466;11.068;2024-02-26T14:20:25;7.05;;;6.30;;
29916;SDS011;16786;49.466;11.068;2024-02-26T14:22:53;7.90;;;7.20;;
29916;SDS011;16786;49.466;11.068;2024-02-26T14:25:20;7.15;;;6.55;;
29916;SDS011;16786;49.466;11.068;2024-02-26T14:27:48;6.78;;;6.25;;
29916;SDS011;16786;49.466;11.068;2024-02-26T14:30:15;7.22;;;6.55;;
29916;SDS011;16786;49.466;11.068;2024-02-26T14:32:42;7.20;;;6.55;;
29916;SDS011;16786;49.466;11.068;2024-02-26T14:35:10;7.10;;;6.50;;
29916;SDS011;16786;49.466;11.068;2024-02-26T14:37:43;7.90;;;6.80;;
29916;SDS011;16786;49.466;11.068;2024-02-26T14:40:15;7.40;;;6.78;;